Terminal Aerodrome Forecast
Issued by NWS Green Bay, WI

Home | Current Version | Previous Version | Graphics & Text | Print | Product List | Glossary On
Versions: 1 2 3 4 5 6 7 8 9 10 11 12 13 14 15 16 17 18 19 20 21 22 23 24 25 26 27 28 29 30 31 32 33 34 35 36 37 38 39 40 41 42 43 44 45 46 47 48 49 50
000
FTUS43 KGRB 222200 AAB
TAFGRB
TAF AMD
KGRB 222249Z 2223/2318 21005KT 1/4SM FG VV002
      TEMPO 2223/2303 1 1/2SM BR OVC005
     FM230300 19006KT 1 1/2SM -DZ BR OVC005
     FM230800 18008KT 1SM -DZ BR OVC004
      TEMPO 2308/2312 1/4SM -RA FG VV001
     FM231200 18009KT 1SM -RA BR OVC003
     FM231500 18011KT 1 1/2SM -RA BR OVC006=

USA.gov is the U.S. government's official web portal to all federal, state and local government web resources and services.